createdAt,value
2023-01-29T00:02:08.240Z,8.10
2023-01-29T00:04:35.043Z,6.50
2023-01-29T00:07:01.891Z,6.10
2023-01-29T00:09:31.480Z,7.10
2023-01-29T00:11:58.881Z,9.10
2023-01-29T00:14:27.377Z,9.20
2023-01-29T00:16:54.282Z,7.10
2023-01-29T00:19:21.306Z,6.10
2023-01-29T00:21:48.646Z,7.40
2023-01-29T00:24:15.730Z,7.30
2023-01-29T00:26:43.304Z,8.50
2023-01-29T00:29:10.958Z,6.50
2023-01-29T00:31:38.284Z,6.00
2023-01-29T00:34:07.349Z,10.30
2023-01-29T00:36:34.319Z,11.30
2023-01-29T00:39:03.670Z,9.50
2023-01-29T00:41:51.367Z,10.50
2023-01-29T00:44:36.971Z,7.90
2023-01-29T00:47:04.239Z,6.80
2023-01-29T00:49:32.455Z,8.00
2023-01-29T00:52:18.487Z,6.90
2023-01-29T00:54:45.343Z,7.30
2023-01-29T00:57:12.234Z,10.40
2023-01-29T00:59:39.655Z,8.50
2023-01-29T01:02:25.469Z,6.80
2023-01-29T01:04:52.330Z,8.50
2023-01-29T01:07:19.242Z,6.90
2023-01-29T01:10:04.705Z,7.60
2023-01-29T01:12:32.323Z,8.00
2023-01-29T01:14:59.221Z,9.70
2023-01-29T01:17:26.577Z,6.80
2023-01-29T01:19:53.769Z,4.90
2023-01-29T01:22:21.027Z,9.00
2023-01-29T01:24:48.672Z,6.00
2023-01-29T01:27:15.546Z,8.20
2023-01-29T01:29:43.319Z,8.20
2023-01-29T01:32:10.510Z,6.60
2023-01-29T01:34:37.890Z,5.20
2023-01-29T01:37:04.721Z,9.30
2023-01-29T01:39:32.554Z,8.00
2023-01-29T01:41:59.366Z,7.00
2023-01-29T01:44:56.007Z,8.70
2023-01-29T01:47:39.089Z,6.80
2023-01-29T01:50:12.175Z,7.30
2023-01-29T01:52:41.894Z,7.70
2023-01-29T01:57:36.501Z,6.80
2023-01-29T02:00:10.258Z,6.60
2023-01-29T06:33:46.640Z,18.70
2023-01-29T06:36:13.574Z,17.50
2023-01-29T06:38:41.838Z,15.80
2023-01-29T06:41:13.037Z,16.90
2023-01-29T06:43:39.849Z,20.90
2023-01-29T06:46:07.777Z,16.30
2023-01-29T06:48:35.519Z,15.40
2023-01-29T06:51:06.792Z,13.30
2023-01-29T06:53:33.975Z,14.60
2023-01-29T06:56:01.101Z,19.90
2023-01-29T06:58:27.906Z,19.20
2023-01-29T07:00:54.718Z,15.70
2023-01-29T07:03:21.984Z,15.60
2023-01-29T07:05:53.039Z,20.60
2023-01-29T07:08:22.755Z,19.30
2023-01-29T07:13:17.100Z,11.30
2023-01-29T07:15:44.759Z,14.40
2023-01-29T07:18:12.741Z,13.10
2023-01-29T07:20:40.578Z,17.70
2023-01-29T07:23:09.176Z,19.50
2023-01-29T07:25:35.934Z,16.50
2023-01-29T07:28:03.342Z,14.80
2023-01-29T07:30:30.281Z,19.00
2023-01-29T07:33:16.134Z,17.00
2023-01-29T07:35:43.645Z,14.70
2023-01-29T07:38:10.864Z,17.80
2023-01-29T07:40:39.219Z,19.10
2023-01-29T07:43:07.616Z,16.30
2023-01-29T07:45:35.545Z,18.20
2023-01-29T07:48:04.352Z,19.30
2023-01-29T07:50:31.812Z,17.50
2023-01-29T07:52:58.708Z,20.20
2023-01-29T07:55:25.613Z,19.20
2023-01-29T07:57:59.650Z,12.70
2023-01-29T08:00:26.704Z,14.00
2023-01-29T08:02:53.590Z,14.10
2023-01-29T08:05:20.642Z,15.20
2023-01-29T08:08:05.703Z,14.20
2023-01-29T08:10:35.280Z,12.40
2023-01-29T08:13:03.228Z,13.70
2023-01-29T08:15:30.542Z,12.60
2023-01-29T08:17:58.545Z,11.30
2023-01-29T08:20:25.925Z,12.90
2023-01-29T08:23:03.051Z,14.00
2023-01-29T08:25:30.302Z,13.30
2023-01-29T08:27:58.118Z,13.00
2023-01-29T08:30:29.301Z,9.80
2023-01-29T08:32:56.375Z,10.00
2023-01-29T08:35:23.533Z,12.30
2023-01-29T08:37:54.816Z,13.00
2023-01-29T08:40:21.923Z,12.40
2023-01-29T08:42:48.951Z,11.80
2023-01-29T08:45:16.242Z,12.10
2023-01-29T08:47:48.220Z,14.70
2023-01-29T08:50:16.729Z,14.30
2023-01-29T08:52:44.606Z,14.50
2023-01-29T08:55:12.164Z,11.60
2023-01-29T08:57:39.280Z,13.70
2023-01-29T09:00:07.092Z,13.90
2023-01-29T09:02:34.016Z,11.70
2023-01-29T09:05:01.383Z,13.40
2023-01-29T09:07:29.369Z,9.40
2023-01-29T09:09:56.450Z,13.30
2023-01-29T09:12:23.742Z,11.40
2023-01-29T09:14:55.172Z,12.10
2023-01-29T09:17:21.985Z,11.10
2023-01-29T09:19:48.709Z,12.90
2023-01-29T09:22:15.661Z,12.70
2023-01-29T09:24:42.555Z,12.80
2023-01-29T09:27:10.122Z,12.00
2023-01-29T09:29:37.847Z,12.10
2023-01-29T09:32:05.183Z,10.40
2023-01-29T09:34:34.408Z,14.50
2023-01-29T09:37:01.569Z,9.50
2023-01-29T09:39:28.363Z,12.50
2023-01-29T09:42:20.924Z,10.80
2023-01-29T09:45:12.943Z,11.50
2023-01-29T09:47:40.845Z,14.70
2023-01-29T09:50:37.019Z,12.50
2023-01-29T09:53:29.764Z,10.10
2023-01-29T09:56:01.362Z,11.80
2023-01-29T09:58:36.206Z,12.60
2023-01-29T10:01:24.306Z,12.00
2023-01-29T10:04:01.223Z,12.30
2023-01-29T10:06:51.294Z,11.20
2023-01-29T12:12:42.766Z,12.60
2023-01-29T12:15:17.413Z,11.10
2023-01-29T12:17:47.918Z,11.60
2023-01-29T12:20:18.476Z,12.20
2023-01-29T12:23:03.021Z,13.00
2023-01-29T12:25:39.768Z,12.60
2023-01-29T12:28:39.313Z,11.10
2023-01-29T12:31:11.518Z,11.50
2023-01-29T12:33:43.903Z,10.40
2023-01-29T12:36:13.728Z,9.60
2023-01-29T12:41:13.924Z,8.30
2023-01-29T12:43:48.712Z,10.00
2023-01-29T12:46:43.385Z,11.40
2023-01-29T12:49:16.920Z,12.70
2023-01-29T12:52:15.026Z,9.50
2023-01-29T12:55:13.254Z,9.40
2023-01-29T12:57:46.228Z,10.10
2023-01-29T13:00:43.761Z,10.20
2023-01-29T13:03:17.427Z,9.30
2023-01-29T13:05:47.332Z,10.20
2023-01-29T13:08:22.869Z,10.20
2023-01-29T13:10:53.680Z,11.40
2023-01-29T13:13:36.537Z,10.00
2023-01-29T13:16:06.696Z,9.70
2023-01-29T13:18:49.737Z,13.00
2023-01-29T13:21:18.782Z,9.20
2023-01-29T13:23:47.943Z,10.80
2023-01-29T13:26:18.348Z,10.50
2023-01-29T13:28:45.414Z,9.10
2023-01-29T13:31:21.889Z,13.20
2023-01-29T13:33:55.702Z,10.20
2023-01-29T13:36:30.005Z,8.40
2023-01-29T13:39:07.499Z,9.00
2023-01-29T13:41:38.923Z,8.80
2023-01-29T13:44:07.471Z,8.30
2023-01-29T13:46:34.612Z,9.80
2023-01-29T13:49:05.389Z,10.90
2023-01-29T13:51:35.532Z,12.40
2023-01-29T13:54:05.008Z,10.10
2023-01-29T13:56:34.988Z,7.30
2023-01-29T13:59:06.129Z,9.10
2023-01-29T14:01:48.491Z,8.90
2023-01-29T14:04:26.802Z,8.30
2023-01-29T14:06:58.540Z,11.80
2023-01-29T14:09:38.308Z,11.40
2023-01-29T14:12:25.815Z,10.40
2023-01-29T14:14:56.753Z,9.70
2023-01-29T14:17:24.545Z,12.20
2023-01-29T14:19:53.204Z,9.60
2023-01-29T14:22:27.133Z,9.00
2023-01-29T14:24:55.342Z,9.00
2023-01-29T14:27:23.259Z,10.10
2023-01-29T14:29:51.810Z,8.50
2023-01-29T14:32:20.274Z,8.90
2023-01-29T14:35:03.356Z,9.50
2023-01-29T14:40:15.545Z,7.20
2023-01-29T14:42:48.277Z,8.90
2023-01-29T14:45:31.869Z,8.60
2023-01-29T14:48:02.083Z,9.30
2023-01-29T14:50:29.371Z,8.10
2023-01-29T14:53:05.102Z,8.60
2023-01-29T14:58:04.499Z,9.20
2023-01-29T15:00:39.826Z,11.80
2023-01-29T15:03:13.659Z,7.00
2023-01-29T15:05:40.673Z,8.20
2023-01-29T15:08:19.640Z,8.50
2023-01-29T15:11:13.794Z,9.50
2023-01-29T15:14:24.182Z,8.40
2023-01-29T15:16:53.471Z,8.70
2023-01-29T15:19:25.198Z,8.20
2023-01-29T15:22:15.173Z,11.70
2023-01-29T15:24:43.191Z,10.80
2023-01-29T15:27:13.325Z,8.80
2023-01-29T15:29:41.205Z,9.40
2023-01-29T15:32:12.663Z,9.60
2023-01-29T15:34:42.805Z,11.10
2023-01-29T15:37:27.786Z,9.60
2023-01-29T15:39:54.941Z,8.80
2023-01-29T15:42:25.753Z,9.10
2023-01-29T15:44:54.679Z,7.10
2023-01-29T15:47:27.407Z,9.40
2023-01-29T15:49:54.513Z,8.60
2023-01-29T15:52:24.067Z,10.30
2023-01-29T15:54:51.474Z,10.10
2023-01-29T15:57:20.704Z,9.20
2023-01-29T15:59:51.764Z,9.20
2023-01-29T16:02:24.338Z,10.10
2023-01-29T16:04:53.991Z,9.70
2023-01-29T16:07:24.944Z,10.60
2023-01-29T16:09:52.519Z,10.70
2023-01-29T16:12:19.417Z,9.70
2023-01-29T16:14:46.309Z,9.40
2023-01-29T16:17:30.293Z,10.60
2023-01-29T16:19:59.678Z,10.60
2023-01-29T16:22:29.219Z,9.20
2023-01-29T16:24:56.756Z,8.60
2023-01-29T16:27:23.745Z,10.50
2023-01-29T16:29:50.504Z,9.10
2023-01-29T16:32:18.493Z,9.20
2023-01-29T16:34:45.358Z,10.70
2023-01-29T16:37:20.488Z,9.70
2023-01-29T16:39:48.249Z,9.50
2023-01-29T16:42:21.594Z,9.70
2023-01-29T16:45:02.152Z,10.00
2023-01-29T16:47:31.617Z,9.00
2023-01-29T16:50:00.975Z,9.10
2023-01-29T16:52:33.359Z,9.20
2023-01-29T16:55:21.605Z,8.50
2023-01-29T16:57:54.201Z,8.10
2023-01-29T17:00:28.044Z,10.20
2023-01-29T17:03:05.041Z,10.10
2023-01-29T17:05:34.767Z,8.00
2023-01-29T17:08:01.639Z,8.80
2023-01-29T17:10:29.287Z,6.00
2023-01-29T17:13:07.920Z,7.50
2023-01-29T17:15:46.223Z,9.80
2023-01-29T17:18:24.017Z,8.20
2023-01-29T17:20:53.106Z,8.40
2023-01-29T17:23:20.741Z,7.50
2023-01-29T17:25:47.698Z,8.60
2023-01-29T17:28:16.225Z,8.10
2023-01-29T17:30:46.388Z,9.50
2023-01-29T17:33:22.899Z,6.10
2023-01-29T17:35:50.148Z,8.30
2023-01-29T17:38:25.939Z,7.60
2023-01-29T17:40:57.560Z,8.40
2023-01-29T17:43:24.511Z,6.40
2023-01-29T17:45:51.535Z,8.00
2023-01-29T17:48:27.064Z,7.50
2023-01-29T17:50:56.410Z,7.20
2023-01-29T17:53:24.820Z,8.50
2023-01-29T17:55:53.566Z,6.70
2023-01-29T17:58:22.341Z,7.60
2023-01-29T22:13:05.447Z,8.80
2023-01-29T22:15:34.556Z,13.60
2023-01-29T22:18:01.369Z,9.90
2023-01-29T22:20:30.792Z,7.60
2023-01-29T22:22:59.489Z,7.40
2023-01-29T22:25:26.668Z,6.70
2023-01-29T22:27:54.032Z,7.60
2023-01-29T22:30:21.793Z,5.90
2023-01-29T22:32:49.348Z,6.40
2023-01-29T22:35:16.830Z,10.10
2023-01-29T22:37:45.159Z,12.20
2023-01-29T22:46:18.538Z,26.30
2023-01-29T22:48:46.156Z,16.90
2023-01-29T22:51:13.933Z,10.40
2023-01-29T22:53:49.156Z,6.50
2023-01-29T22:56:15.983Z,6.50
2023-01-29T22:58:42.840Z,9.10
2023-01-29T23:01:10.140Z,6.40
2023-01-29T23:03:37.151Z,8.70
2023-01-29T23:06:04.033Z,4.50
2023-01-29T23:08:32.634Z,6.50
2023-01-29T23:11:14.227Z,7.40
2023-01-29T23:13:43.058Z,14.30
2023-01-29T23:16:10.623Z,8.80
2023-01-29T23:26:44.462Z,8.10
2023-01-29T23:29:11.335Z,7.10
2023-01-29T23:31:38.705Z,8.50
2023-01-29T23:34:05.776Z,5.00
2023-01-29T23:36:32.826Z,6.20
2023-01-29T23:38:59.579Z,5.40
2023-01-29T23:41:26.919Z,4.70
2023-01-29T23:51:33.176Z,5.90
2023-01-29T23:54:00.684Z,5.50
2023-01-29T23:56:27.685Z,6.00
2023-01-29T23:58:55.754Z,5.40
